Time;durP1;ratioP1;P1;durP2;ratioP2;P2;SDS_P1;SDS_P2;PMS_P1;PMS_P2;Temp;Humidity;BMP_temperature;BMP_pressure;BME280_temperature;BME280_humidity;BME280_pressure;Samples;Min_cycle;Max_cycle;Signal;HPM_P1;HPM_P2
2022/08/04 00:01:07;;;;;;;;;;;20.80;99.90;;;;;;5158897;27;19927;-72
2022/08/04 00:03:41;;;;;;;;;;;20.80;99.90;;;;;;5158579;27;20292;-72
2022/08/04 00:06:13;;;;;;;;;;;20.80;99.90;;;;;;5140216;27;19930;-72
2022/08/04 00:09:08;;;;;;;;;;;20.80;99.90;;;;;;5158497;27;20450;-71
2022/08/04 00:11:33;;;;;;;;;;;20.80;99.90;;;;;;5148946;27;20010;-72
2022/08/04 00:14:04;;;;;;;;;;;20.70;99.90;;;;;;5140223;27;20029;-72
2022/08/04 00:16:32;;;;;;;;;;;20.70;99.90;;;;;;5158460;27;19930;-71
2022/08/04 00:19:02;;;;;;;;;;;20.70;99.90;;;;;;5158376;27;19968;-72
2022/08/04 00:21:28;;;;;;;;;;;20.70;99.90;;;;;;5158550;27;19931;-72
2022/08/04 00:23:55;;;;;;;;;;;20.70;99.90;;;;;;5158544;27;19931;-71
2022/08/04 00:26:20;;;;;;;;;;;20.60;99.90;;;;;;5158371;27;19923;-72
2022/08/04 00:28:46;;;;;;;;;;;20.60;99.90;;;;;;5158140;27;19930;-72
2022/08/04 00:31:13;;;;;;;;;;;20.60;99.90;;;;;;5158031;27;20002;-72
2022/08/04 00:33:39;;;;;;;;;;;20.60;99.90;;;;;;5157865;27;19923;-71
2022/08/04 00:36:05;;;;;;;;;;;20.60;99.90;;;;;;5156786;27;20346;-72
2022/08/04 00:38:31;;;;;;;;;;;20.60;99.90;;;;;;5158233;27;19930;-72
2022/08/04 00:41:05;;;;;;;;;;;20.50;99.90;;;;;;5158057;27;20003;-71
2022/08/04 00:43:40;;;;;;;;;;;20.50;99.90;;;;;;5157971;27;20034;-71
2022/08/04 00:46:10;;;;;;;;;;;20.50;99.90;;;;;;5157879;27;19930;-72
2022/08/04 00:48:50;;;;;;;;;;;20.50;99.90;;;;;;5158040;27;19927;-72
2022/08/04 00:51:19;;;;;;;;;;;20.50;99.90;;;;;;5139436;27;19971;-71
2022/08/04 00:53:54;;;;;;;;;;;20.50;99.90;;;;;;5174134;27;20308;-72
2022/08/04 00:56:19;;;;;;;;;;;20.50;99.90;;;;;;5139088;27;19924;-72
2022/08/04 00:59:12;;;;;;;;;;;20.40;99.90;;;;;;5157679;27;19949;-72
2022/08/04 01:01:43;;;;;;;;;;;20.40;99.90;;;;;;5157722;27;19923;-71
2022/08/04 01:04:11;;;;;;;;;;;20.40;99.90;;;;;;5157472;27;20289;-71
2022/08/04 01:06:52;;;;;;;;;;;20.40;99.90;;;;;;5157595;27;19923;-71
2022/08/04 01:09:25;;;;;;;;;;;20.30;99.90;;;;;;5139117;27;20013;-71
2022/08/04 01:12:06;;;;;;;;;;;20.40;99.90;;;;;;5157656;27;19930;-72
2022/08/04 01:14:34;;;;;;;;;;;20.30;99.90;;;;;;5157449;27;20022;-72
2022/08/04 01:17:06;;;;;;;;;;;20.30;99.90;;;;;;5157370;27;20297;-71
2022/08/04 01:19:54;;;;;;;;;;;20.30;99.90;;;;;;5157263;27;19970;-71
2022/08/04 01:22:31;;;;;;;;;;;20.30;99.90;;;;;;5157405;27;20274;-71
2022/08/04 01:24:57;;;;;;;;;;;20.30;99.90;;;;;;5138871;27;19932;-72
2022/08/04 01:27:32;;;;;;;;;;;20.30;99.90;;;;;;5157232;27;19923;-71
2022/08/04 01:29:59;;;;;;;;;;;19.90;99.90;;;;;;5157099;27;19969;-71
2022/08/04 01:32:26;;;;;;;;;;;20.30;99.90;;;;;;5156967;27;19923;-72
2022/08/04 01:34:57;;;;;;;;;;;20.30;99.90;;;;;;5157008;27;20569;-72
2022/08/04 01:37:30;;;;;;;;;;;20.20;99.90;;;;;;5157066;27;19930;-71
2022/08/04 01:40:00;;;;;;;;;;;20.20;99.90;;;;;;5156901;27;20440;-72
2022/08/04 01:42:27;;;;;;;;;;;20.20;99.90;;;;;;5156829;27;19923;-72
2022/08/04 01:44:54;;;;;;;;;;;20.20;99.90;;;;;;5156647;27;19923;-72
2022/08/04 01:47:20;;;;;;;;;;;20.20;99.90;;;;;;5155904;27;20343;-72
2022/08/04 01:49:48;;;;;;;;;;;20.10;99.90;;;;;;5157106;27;19923;-72
2022/08/04 01:52:15;;;;;;;;;;;20.10;99.90;;;;;;5156751;27;19923;-71
2022/08/04 01:54:40;;;;;;;;;;;20.10;99.90;;;;;;5138413;27;19923;-71
2022/08/04 01:57:08;;;;;;;;;;;20.00;99.90;;;;;;5156407;27;20464;-72
2022/08/04 01:59:34;;;;;;;;;;;19.90;99.90;;;;;;5156397;27;19992;-71
2022/08/04 02:02:00;;;;;;;;;;;19.90;99.90;;;;;;5156163;27;20501;-71
2022/08/04 02:04:25;;;;;;;;;;;19.80;99.90;;;;;;5156269;27;19976;-71
2022/08/04 02:06:56;;;;;;;;;;;19.80;99.90;;;;;;5156237;27;19927;-72
2022/08/04 02:09:34;;;;;;;;;;;19.80;99.90;;;;;;5156286;27;20309;-72
2022/08/04 02:11:59;;;;;;;;;;;19.60;99.90;;;;;;5156204;27;19923;-72
2022/08/04 02:14:43;;;;;;;;;;;19.80;99.90;;;;;;5171889;27;19930;-72
2022/08/04 02:17:13;;;;;;;;;;;19.80;99.90;;;;;;5137675;27;19929;-71
2022/08/04 02:19:48;;;;;;;;;;;19.70;99.90;;;;;;5156131;27;19968;-72
2022/08/04 02:22:16;;;;;;;;;;;19.70;99.90;;;;;;5156034;27;20358;-72
2022/08/04 02:24:44;;;;;;;;;;;19.70;99.90;;;;;;5155902;27;20442;-71
2022/08/04 02:27:11;;;;;;;;;;;19.70;99.90;;;;;;5155827;27;19930;-71
2022/08/04 02:29:46;;;;;;;;;;;19.70;99.90;;;;;;5156114;27;19923;-72
2022/08/04 02:32:18;;;;;;;;;;;19.70;99.90;;;;;;5155649;27;19923;-72
2022/08/04 02:34:52;;;;;;;;;;;19.60;99.90;;;;;;5137578;27;19923;-71
2022/08/04 02:37:19;;;;;;;;;;;19.60;99.90;;;;;;5137307;27;19922;-71
2022/08/04 02:39:46;;;;;;;;;;;19.50;99.90;;;;;;5155681;27;19930;-72
2022/08/04 02:42:13;;;;;;;;;;;19.50;99.90;;;;;;5155563;27;20380;-72
2022/08/04 02:44:39;;;;;;;;;;;19.40;99.90;;;;;;5172313;27;20294;-72
2022/08/04 02:47:05;;;;;;;;;;;19.40;99.90;;;;;;5155758;27;19930;-71
2022/08/04 02:49:34;;;;;;;;;;;19.40;99.90;;;;;;5155572;27;20308;-72
2022/08/04 02:52:00;;;;;;;;;;;19.30;99.90;;;;;;5155626;27;19923;-72
2022/08/04 02:54:33;;;;;;;;;;;19.30;99.90;;;;;;5137006;27;19930;-71
2022/08/04 02:57:00;;;;;;;;;;;19.20;99.90;;;;;;5137441;27;19927;-71
2022/08/04 02:59:26;;;;;;;;;;;19.40;99.90;;;;;;5137398;27;19931;-72
2022/08/04 03:01:56;;;;;;;;;;;19.20;99.90;;;;;;5137354;27;19941;-71
2022/08/04 03:04:45;;;;;;;;;;;19.20;99.90;;;;;;5171658;27;19923;-72
2022/08/04 03:07:16;;;;;;;;;;;19.30;99.90;;;;;;5094957;28;20015;-72
2022/08/04 03:09:54;;;;;;;;;;;19.30;99.90;;;;;;5111905;28;19947;-72
2022/08/04 03:12:22;;;;;;;;;;;19.20;99.90;;;;;;5111809;28;20486;-71
2022/08/04 03:14:51;;;;;;;;;;;19.20;99.90;;;;;;5111914;28;19931;-71
2022/08/04 03:17:28;;;;;;;;;;;19.20;99.90;;;;;;5111875;28;19924;-72
2022/08/04 03:20:04;;;;;;;;;;;19.20;99.90;;;;;;5111851;28;20374;-72
2022/08/04 03:22:49;;;;;;;;;;;19.10;99.90;;;;;;5111825;28;19957;-72
2022/08/04 03:25:43;;;;;;;;;;;19.10;99.90;;;;;;5094642;28;20427;-72
2022/08/04 03:28:11;;;;;;;;;;;19.00;99.90;;;;;;5051384;28;20384;-72
2022/08/04 03:30:55;;;;;;;;;;;19.00;99.90;;;;;;5034755;28;19936;-71
2022/08/04 03:33:39;;;;;;;;;;;19.00;99.90;;;;;;5051018;28;20299;-71
2022/08/04 03:36:11;;;;;;;;;;;19.00;99.90;;;;;;5051138;28;19980;-71
2022/08/04 03:38:55;;;;;;;;;;;19.00;99.90;;;;;;5050804;28;20372;-71
2022/08/04 03:41:35;;;;;;;;;;;18.90;99.90;;;;;;5051127;28;19948;-71
2022/08/04 03:44:19;;;;;;;;;;;18.80;99.90;;;;;;5068259;28;19969;-71
2022/08/04 03:47:07;;;;;;;;;;;18.70;99.90;;;;;;5091197;28;19990;-72
2022/08/04 03:49:38;;;;;;;;;;;18.60;99.90;;;;;;5091539;28;19935;-72
2022/08/04 03:55:14;;;;;;;;;;;18.60;99.90;;;;;;5091163;28;20391;-71
2022/08/04 03:57:51;;;;;;;;;;;18.50;99.90;;;;;;5091010;28;19977;-72
2022/08/04 04:00:35;;;;;;;;;;;18.50;99.90;;;;;;5091155;28;19931;-71
2022/08/04 04:03:11;;;;;;;;;;;18.50;99.90;;;;;;5091051;28;20291;-73
2022/08/04 04:05:43;;;;;;;;;;;18.50;99.90;;;;;;5150983;27;19923;-72
2022/08/04 04:08:08;;;;;;;;;;;18.50;99.90;;;;;;5154903;27;20010;-72
2022/08/04 04:10:40;;;;;;;;;;;18.60;99.90;;;;;;5157656;27;19989;-71
2022/08/04 04:13:23;;;;;;;;;;;18.60;99.90;;;;;;5158628;27;19923;-72
2022/08/04 04:15:54;;;;;;;;;;;18.60;99.90;;;;;;5122682;27;20400;-72
2022/08/04 04:18:29;;;;;;;;;;;18.60;99.90;;;;;;5158344;27;20297;-71
2022/08/04 04:20:57;;;;;;;;;;;18.60;99.90;;;;;;5158516;27;19923;-71
2022/08/04 04:23:23;;;;;;;;;;;18.60;99.90;;;;;;5158328;27;20440;-71
2022/08/04 04:26:07;;;;;;;;;;;18.60;99.90;;;;;;5140198;27;19966;-72
2022/08/04 04:28:51;;;;;;;;;;;18.70;99.90;;;;;;5158330;27;19974;-72
2022/08/04 04:31:19;;;;;;;;;;;18.70;99.90;;;;;;5158243;27;19923;-72
2022/08/04 04:33:55;;;;;;;;;;;18.70;99.90;;;;;;5158031;27;20339;-71
2022/08/04 04:36:33;;;;;;;;;;;18.60;99.90;;;;;;5157494;27;20422;-72
2022/08/04 04:39:02;;;;;;;;;;;18.60;99.90;;;;;;5139190;27;19929;-71
2022/08/04 04:41:46;;;;;;;;;;;18.50;99.90;;;;;;5139711;27;19923;-71
2022/08/04 04:44:21;;;;;;;;;;;18.50;99.90;;;;;;5158136;27;19927;-71
2022/08/04 04:47:03;;;;;;;;;;;18.50;99.90;;;;;;5174435;27;20457;-72
2022/08/04 04:49:36;;;;;;;;;;;18.60;99.90;;;;;;5174392;27;19924;-72
2022/08/04 04:52:02;;;;;;;;;;;18.60;99.90;;;;;;5157765;27;20238;-71
2022/08/04 04:54:28;;;;;;;;;;;18.70;99.90;;;;;;5157985;27;20021;-71
2022/08/04 04:57:04;;;;;;;;;;;18.60;99.90;;;;;;5157792;27;19923;-71
2022/08/04 04:59:32;;;;;;;;;;;18.70;99.90;;;;;;5157808;27;19923;-72
2022/08/04 05:02:16;;;;;;;;;;;18.70;99.90;;;;;;5157666;27;19973;-71
2022/08/04 05:04:57;;;;;;;;;;;18.70;99.90;;;;;;5157559;27;19923;-72
2022/08/04 05:07:41;;;;;;;;;;;18.80;99.90;;;;;;5157721;27;19966;-72
2022/08/04 05:10:09;;;;;;;;;;;18.80;99.90;;;;;;5157476;27;19923;-71
2022/08/04 05:12:50;;;;;;;;;;;18.90;99.90;;;;;;5157482;27;20005;-71
2022/08/04 05:15:17;;;;;;;;;;;18.90;99.90;;;;;;5157206;27;19931;-72
2022/08/04 05:17:48;;;;;;;;;;;18.90;99.90;;;;;;5157423;27;19927;-72
2022/08/04 05:20:18;;;;;;;;;;;18.90;99.90;;;;;;5156925;27;20282;-72
2022/08/04 05:22:47;;;;;;;;;;;19.00;99.90;;;;;;5138121;27;19952;-71
2022/08/04 05:25:18;;;;;;;;;;;19.00;99.90;;;;;;5157216;27;19927;-71
2022/08/04 05:27:54;;;;;;;;;;;19.10;99.90;;;;;;5138905;27;19923;-71
2022/08/04 05:30:21;;;;;;;;;;;19.20;99.90;;;;;;5157238;27;19923;-71
2022/08/04 05:32:53;;;;;;;;;;;19.10;99.90;;;;;;5138233;27;19923;-72
2022/08/04 05:35:27;;;;;;;;;;;19.20;99.90;;;;;;5156978;27;19930;-72
2022/08/04 05:37:53;;;;;;;;;;;19.30;99.90;;;;;;5156697;27;19927;-72
2022/08/04 05:40:19;;;;;;;;;;;19.30;99.90;;;;;;5156847;27;19923;-71
2022/08/04 05:42:45;;;;;;;;;;;19.30;99.90;;;;;;5156872;27;20374;-72
2022/08/04 05:45:11;;;;;;;;;;;19.40;99.90;;;;;;5156894;27;19923;-72
2022/08/04 05:47:37;;;;;;;;;;;19.50;99.90;;;;;;5156735;27;19923;-72
2022/08/04 05:50:04;;;;;;;;;;;19.50;99.90;;;;;;5156700;27;19979;-71
2022/08/04 05:52:31;;;;;;;;;;;19.60;99.90;;;;;;5156612;27;19923;-71
2022/08/04 05:54:57;;;;;;;;;;;19.60;99.90;;;;;;5156389;27;19927;-72
2022/08/04 05:57:23;;;;;;;;;;;19.70;99.90;;;;;;5138517;27;20050;-71
2022/08/04 05:59:49;;;;;;;;;;;19.70;99.90;;;;;;5156665;27;20397;-72
2022/08/04 06:02:17;;;;;;;;;;;19.80;99.90;;;;;;5156461;27;20297;-72
2022/08/04 06:04:44;;;;;;;;;;;19.90;99.90;;;;;;5156520;27;19927;-71
2022/08/04 06:07:15;;;;;;;;;;;19.90;99.90;;;;;;5137877;27;20309;-71
2022/08/04 06:09:41;;;;;;;;;;;20.00;99.90;;;;;;5172687;27;19923;-72
2022/08/04 06:12:16;;;;;;;;;;;20.10;99.90;;;;;;5138226;27;19930;-71
2022/08/04 06:14:43;;;;;;;;;;;20.10;99.90;;;;;;5156295;27;20301;-71
2022/08/04 06:17:11;;;;;;;;;;;20.20;99.90;;;;;;5156186;27;20018;-72
2022/08/04 06:19:38;;;;;;;;;;;20.30;99.90;;;;;;5156189;27;19931;-71
2022/08/04 06:22:04;;;;;;;;;;;20.30;99.90;;;;;;5155976;27;19926;-72
2022/08/04 06:24:31;;;;;;;;;;;20.40;99.90;;;;;;5155986;27;19930;-71
2022/08/04 06:26:57;;;;;;;;;;;20.40;99.90;;;;;;5155062;27;19927;-71
2022/08/04 06:29:27;;;;;;;;;;;20.50;99.90;;;;;;5155961;27;20018;-72
2022/08/04 06:32:27;;;;;;;;;;;20.60;99.90;;;;;;5153330;27;19923;-71
2022/08/04 06:34:54;;;;;;;;;;;20.60;99.90;;;;;;5155610;27;19927;-71
2022/08/04 06:37:20;;;;;;;;;;;20.80;99.90;;;;;;5172077;27;19930;-71
2022/08/04 06:39:46;;;;;;;;;;;20.80;99.90;;;;;;5155842;27;19926;-71
2022/08/04 06:42:11;;;;;;;;;;;20.90;99.90;;;;;;5137205;27;19930;-71
2022/08/04 06:44:39;;;;;;;;;;;20.90;99.90;;;;;;5171312;27;19923;-71
2022/08/04 06:47:04;;;;;;;;;;;21.00;99.90;;;;;;5155525;27;19924;-70
2022/08/04 06:49:31;;;;;;;;;;;21.00;99.90;;;;;;5155530;27;19930;-74
2022/08/04 06:51:57;;;;;;;;;;;21.10;99.90;;;;;;5155752;27;19927;-73
2022/08/04 06:54:22;;;;;;;;;;;21.20;99.90;;;;;;5155682;27;19927;-72
2022/08/04 06:56:49;;;;;;;;;;;21.30;99.90;;;;;;5155205;27;19923;-72
2022/08/04 06:59:15;;;;;;;;;;;21.40;99.90;;;;;;5155519;27;19924;-72
2022/08/04 07:01:42;;;;;;;;;;;21.40;99.90;;;;;;5155459;27;19930;-72
2022/08/04 07:04:09;;;;;;;;;;;21.50;99.90;;;;;;5155214;27;20369;-71
2022/08/04 07:06:35;;;;;;;;;;;21.60;99.90;;;;;;5155347;27;19975;-72
2022/08/04 07:09:01;;;;;;;;;;;21.70;99.90;;;;;;5155475;27;20330;-72
2022/08/04 07:11:27;;;;;;;;;;;21.30;99.90;;;;;;5155562;27;19927;-71
2022/08/04 07:13:53;;;;;;;;;;;21.80;99.90;;;;;;5136798;27;19935;-71
2022/08/04 07:16:20;;;;;;;;;;;21.90;99.90;;;;;;5136657;27;20010;-71
2022/08/04 07:18:46;;;;;;;;;;;22.00;99.90;;;;;;5155152;27;19923;-72
2022/08/04 07:21:21;;;;;;;;;;;22.10;99.90;;;;;;5155073;27;19927;-71
2022/08/04 07:23:47;;;;;;;;;;;22.10;99.90;;;;;;5155377;27;19923;-72
2022/08/04 07:26:15;;;;;;;;;;;22.20;99.90;;;;;;5154990;27;20346;-73
2022/08/04 07:28:41;;;;;;;;;;;22.20;99.90;;;;;;5155244;27;19923;-71
2022/08/04 07:31:09;;;;;;;;;;;22.20;99.90;;;;;;5155138;27;20370;-72
2022/08/04 07:33:36;;;;;;;;;;;22.30;99.90;;;;;;5136232;27;19923;-72
2022/08/04 07:36:01;;;;;;;;;;;22.30;99.90;;;;;;5155130;27;19922;-71
2022/08/04 07:38:27;;;;;;;;;;;22.40;99.90;;;;;;5136286;27;20421;-72
2022/08/04 07:40:54;;;;;;;;;;;22.40;99.90;;;;;;5155103;27;19934;-72
2022/08/04 07:43:19;;;;;;;;;;;22.50;99.90;;;;;;5135908;27;20366;-73
2022/08/04 07:45:45;;;;;;;;;;;22.50;99.90;;;;;;5158123;27;19923;-72
2022/08/04 07:48:11;;;;;;;;;;;22.60;99.90;;;;;;5140060;27;20365;-71
2022/08/04 07:50:37;;;;;;;;;;;22.60;99.90;;;;;;5158969;27;20011;-72
2022/08/04 07:53:03;;;;;;;;;;;22.70;99.90;;;;;;5159084;27;19978;-71
2022/08/04 07:55:29;;;;;;;;;;;22.70;99.90;;;;;;5158998;27;19970;-71
2022/08/04 07:57:55;;;;;;;;;;;22.70;99.90;;;;;;5158677;27;19923;-71
2022/08/04 08:00:20;;;;;;;;;;;22.70;99.90;;;;;;5143167;27;19926;-72
2022/08/04 08:02:48;;;;;;;;;;;22.80;99.90;;;;;;5152364;27;20405;-72
2022/08/04 08:05:15;;;;;;;;;;;22.80;99.90;;;;;;5137895;27;19969;-71
2022/08/04 08:07:43;;;;;;;;;;;22.80;99.90;;;;;;5137987;27;19924;-72
2022/08/04 08:10:13;;;;;;;;;;;22.80;99.90;;;;;;5137820;27;19923;-72
2022/08/04 08:12:38;;;;;;;;;;;22.90;99.90;;;;;;5119606;27;19923;-72
2022/08/04 08:15:05;;;;;;;;;;;23.00;99.90;;;;;;5137613;27;19923;-71
2022/08/04 08:17:37;;;;;;;;;;;23.00;99.90;;;;;;5137515;27;20464;-72
2022/08/04 08:20:03;;;;;;;;;;;23.00;99.90;;;;;;5137670;27;20040;-72
2022/08/04 08:22:30;;;;;;;;;;;23.10;99.90;;;;;;5119471;27;19930;-72
2022/08/04 08:24:55;;;;;;;;;;;23.10;99.90;;;;;;5137486;27;19927;-72
2022/08/04 08:27:22;;;;;;;;;;;23.20;99.90;;;;;;5136132;27;20060;-71
2022/08/04 08:29:48;;;;;;;;;;;23.30;99.90;;;;;;5158265;27;19930;-73
2022/08/04 08:32:14;;;;;;;;;;;23.30;99.90;;;;;;5158419;27;19923;-72
2022/08/04 08:34:40;;;;;;;;;;;23.30;99.90;;;;;;5157908;27;19923;-72
2022/08/04 08:37:12;;;;;;;;;;;23.40;99.90;;;;;;5158253;27;19923;-71
2022/08/04 08:39:39;;;;;;;;;;;23.40;99.90;;;;;;5140081;27;19931;-72
2022/08/04 08:42:05;;;;;;;;;;;23.50;99.90;;;;;;5139545;27;19968;-72
2022/08/04 08:44:55;;;;;;;;;;;23.60;99.90;;;;;;5157996;27;19927;-71
2022/08/04 08:47:49;;;;;;;;;;;23.60;99.90;;;;;;5157867;27;19923;-71
2022/08/04 08:50:18;;;;;;;;;;;23.70;99.90;;;;;;5157970;27;19971;-71
2022/08/04 08:52:43;;;;;;;;;;;23.70;99.90;;;;;;5157791;27;19931;-73
2022/08/04 08:55:16;;;;;;;;;;;23.70;99.90;;;;;;5157573;27;19923;-73
2022/08/04 08:57:51;;;;;;;;;;;23.80;99.90;;;;;;5157495;27;19930;-71
2022/08/04 09:00:16;;;;;;;;;;;23.90;99.90;;;;;;5159298;27;19923;-72
2022/08/04 09:02:57;;;;;;;;;;;23.90;99.90;;;;;;5150175;27;20014;-71
2022/08/04 09:05:25;;;;;;;;;;;24.00;99.90;;;;;;5157199;27;19934;-72
2022/08/04 09:08:14;;;;;;;;;;;24.10;99.90;;;;;;5157596;27;20425;-72
2022/08/04 09:10:44;;;;;;;;;;;24.10;99.90;;;;;;5139301;27;19970;-72
2022/08/04 09:13:29;;;;;;;;;;;24.20;99.90;;;;;;5157497;27;19978;-72
2022/08/04 09:15:54;;;;;;;;;;;24.20;99.90;;;;;;5157214;27;19923;-72
2022/08/04 09:18:29;;;;;;;;;;;24.20;99.90;;;;;;5139073;27;19927;-72
2022/08/04 09:20:57;;;;;;;;;;;24.20;99.90;;;;;;5138685;27;19969;-71
2022/08/04 09:23:41;;;;;;;;;;;24.30;99.90;;;;;;5157103;27;20305;-71
2022/08/04 09:26:18;;;;;;;;;;;24.30;99.90;;;;;;5157199;27;20011;-71
2022/08/04 09:28:52;;;;;;;;;;;24.40;99.90;;;;;;5172864;27;20013;-72
2022/08/04 09:31:22;;;;;;;;;;;24.50;99.90;;;;;;5138510;27;19929;-72
2022/08/04 09:33:56;;;;;;;;;;;24.50;99.90;;;;;;5157067;27;19927;-73
2022/08/04 09:36:34;;;;;;;;;;;24.60;99.90;;;;;;5138561;27;20343;-71
2022/08/04 09:39:08;;;;;;;;;;;24.60;99.90;;;;;;5156978;27;20014;-72
2022/08/04 09:41:37;;;;;;;;;;;24.70;99.90;;;;;;5156698;27;20433;-72
2022/08/04 09:44:15;;;;;;;;;;;24.70;99.90;;;;;;5157085;27;19978;-72
2022/08/04 09:46:59;;;;;;;;;;;24.80;99.90;;;;;;5156832;27;19923;-72
2022/08/04 09:49:35;;;;;;;;;;;24.90;99.90;;;;;;5156582;27;19923;-71
2022/08/04 09:52:22;;;;;;;;;;;25.00;99.90;;;;;;5156713;27;19927;-71
2022/08/04 09:54:57;;;;;;;;;;;25.20;99.90;;;;;;5156588;27;20374;-72
2022/08/04 09:57:26;;;;;;;;;;;25.30;99.90;;;;;;5156473;27;19927;-72
2022/08/04 10:00:03;;;;;;;;;;;25.50;99.90;;;;;;5156526;27;19923;-72
2022/08/04 10:02:34;;;;;;;;;;;25.60;99.90;;;;;;5156312;27;20359;-72
2022/08/04 10:05:01;;;;;;;;;;;25.80;99.90;;;;;;5156214;27;20030;-73
2022/08/04 10:07:50;;;;;;;;;;;25.80;99.90;;;;;;5155957;27;20014;-73
2022/08/04 10:10:16;;;;;;;;;;;25.90;99.90;;;;;;5156272;27;19985;-71
2022/08/04 10:12:53;;;;;;;;;;;26.10;99.90;;;;;;5156369;27;19940;-72
2022/08/04 10:15:26;;;;;;;;;;;26.10;99.90;;;;;;5172542;27;20389;-71
2022/08/04 10:18:10;;;;;;;;;;;26.20;99.90;;;;;;5156292;27;20039;-72
2022/08/04 10:20:54;;;;;;;;;;;26.30;99.90;;;;;;5156184;27;20018;-72
2022/08/04 10:23:25;;;;;;;;;;;26.40;99.90;;;;;;5172222;27;19923;-72
2022/08/04 10:26:06;;;;;;;;;;;26.40;99.90;;;;;;5155865;27;20305;-72
2022/08/04 10:28:36;;;;;;;;;;;26.70;99.90;;;;;;5137921;27;20285;-71
2022/08/04 10:31:05;;;;;;;;;;;26.60;99.90;;;;;;5155948;27;19968;-72
2022/08/04 10:33:53;;;;;;;;;;;26.60;99.90;;;;;;5137559;27;19923;-72
2022/08/04 10:36:21;;;;;;;;;;;26.70;99.90;;;;;;5155681;27;20285;-72
2022/08/04 10:39:16;;;;;;;;;;;26.70;99.90;;;;;;5155734;27;19927;-71
2022/08/04 10:42:01;;;;;;;;;;;26.70;99.90;;;;;;5112319;28;20024;-72
2022/08/04 10:44:33;;;;;;;;;;;26.80;99.90;;;;;;5094702;28;19946;-72
2022/08/04 10:47:03;;;;;;;;;;;26.90;99.90;;;;;;5112167;28;19924;-72
2022/08/04 10:49:29;;;;;;;;;;;27.00;99.90;;;;;;5112059;28;19924;-72
2022/08/04 10:52:03;;;;;;;;;;;27.10;99.90;;;;;;5112270;28;20022;-72
2022/08/04 10:54:29;;;;;;;;;;;27.10;99.90;;;;;;5112185;28;20341;-72
2022/08/04 10:57:07;;;;;;;;;;;27.20;99.90;;;;;;5112007;28;19930;-73
2022/08/04 10:59:42;;;;;;;;;;;27.20;99.90;;;;;;5112012;28;19946;-72
2022/08/04 11:02:17;;;;;;;;;;;27.20;99.90;;;;;;5112019;28;19930;-72
2022/08/04 11:04:45;;;;;;;;;;;27.20;99.90;;;;;;5111927;28;19982;-71
2022/08/04 11:07:11;;;;;;;;;;;27.20;99.90;;;;;;5095263;28;19935;-72
2022/08/04 11:09:38;;;;;;;;;;;27.20;99.90;;;;;;5111895;28;19930;-71
2022/08/04 11:12:09;;;;;;;;;;;27.30;99.90;;;;;;5094954;28;20441;-71
2022/08/04 11:14:47;;;;;;;;;;;27.30;99.90;;;;;;5111866;28;20286;-71
2022/08/04 11:17:19;;;;;;;;;;;27.30;99.90;;;;;;5100478;27;20021;-71
2022/08/04 11:19:48;;;;;;;;;;;27.40;99.90;;;;;;5156871;27;19926;-72
2022/08/04 11:22:20;;;;;;;;;;;27.40;99.90;;;;;;5159580;27;19930;-72
2022/08/04 11:24:48;;;;;;;;;;;27.40;99.90;;;;;;5159432;27;20385;-71
2022/08/04 11:27:15;;;;;;;;;;;27.40;99.90;;;;;;5159840;27;20285;-71
2022/08/04 11:29:41;;;;;;;;;;;27.40;99.90;;;;;;5140840;27;19962;-72
2022/08/04 11:32:09;;;;;;;;;;;27.50;99.90;;;;;;5129365;27;20295;-71
2022/08/04 11:34:37;;;;;;;;;;;27.50;99.90;;;;;;5138640;27;20079;-72
2022/08/04 11:37:14;;;;;;;;;;;27.50;99.90;;;;;;5138441;27;19931;-72
2022/08/04 11:39:51;;;;;;;;;;;27.50;99.90;;;;;;5138631;27;19969;-71
2022/08/04 11:42:21;;;;;;;;;;;27.60;99.90;;;;;;5138566;27;20266;-72
2022/08/04 11:44:51;;;;;;;;;;;27.50;99.90;;;;;;5138511;27;20014;-71
2022/08/04 11:47:23;;;;;;;;;;;27.50;99.90;;;;;;5138423;27;19924;-71
2022/08/04 11:49:53;;;;;;;;;;;27.50;99.90;;;;;;5138176;27;19931;-71
2022/08/04 11:52:20;;;;;;;;;;;27.50;99.90;;;;;;5138553;27;19923;-72
2022/08/04 11:54:47;;;;;;;;;;;27.40;99.90;;;;;;5138369;27;19923;-72
2022/08/04 11:57:13;;;;;;;;;;;27.40;99.90;;;;;;5138075;27;19928;-72
2022/08/04 11:59:39;;;;;;;;;;;27.40;99.90;;;;;;5119827;27;20022;-72
2022/08/04 12:02:11;;;;;;;;;;;27.30;99.90;;;;;;5138090;27;19923;-72
2022/08/04 12:04:51;;;;;;;;;;;27.30;99.90;;;;;;5137942;27;19971;-71
2022/08/04 12:07:39;;;;;;;;;;;27.30;99.90;;;;;;5138197;27;20412;-71
2022/08/04 12:10:05;;;;;;;;;;;27.20;99.90;;;;;;5137867;27;20301;-72
2022/08/04 12:12:38;;;;;;;;;;;27.20;99.90;;;;;;5138120;27;19923;-71
2022/08/04 12:15:19;;;;;;;;;;;27.20;99.90;;;;;;5137667;27;20343;-71
2022/08/04 12:18:07;;;;;;;;;;;27.20;99.90;;;;;;5137932;27;19931;-71
2022/08/04 12:20:35;;;;;;;;;;;27.10;99.90;;;;;;5137575;27;19924;-72
2022/08/04 12:23:02;;;;;;;;;;;27.00;99.90;;;;;;5137836;27;20397;-72
2022/08/04 12:25:33;;;;;;;;;;;27.00;99.90;;;;;;5119503;27;19949;-71
2022/08/04 12:28:07;;;;;;;;;;;26.90;99.90;;;;;;5119671;27;20350;-71
2022/08/04 12:30:38;;;;;;;;;;;26.80;99.90;;;;;;5137406;27;19930;-72
2022/08/04 12:33:19;;;;;;;;;;;26.90;99.90;;;;;;5157256;27;19923;-71
2022/08/04 12:35:52;;;;;;;;;;;26.70;99.90;;;;;;5158129;27;19923;-71
2022/08/04 12:38:19;;;;;;;;;;;26.60;99.90;;;;;;5158065;27;20015;-71
2022/08/04 12:40:47;;;;;;;;;;;26.50;99.90;;;;;;5139845;27;19922;-71
2022/08/04 12:43:16;;;;;;;;;;;26.40;99.90;;;;;;5158037;27;19927;-70
2022/08/04 12:45:52;;;;;;;;;;;26.30;99.90;;;;;;5157974;27;19984;-72
2022/08/04 12:48:18;;;;;;;;;;;26.20;99.90;;;;;;5157792;27;19923;-72
2022/08/04 12:50:52;;;;;;;;;;;26.20;99.90;;;;;;5157826;27;19927;-71
2022/08/04 12:53:19;;;;;;;;;;;26.10;99.90;;;;;;5157973;27;19923;-71
2022/08/04 12:55:46;;;;;;;;;;;26.00;99.90;;;;;;5157777;27;19923;-72
2022/08/04 12:58:15;;;;;;;;;;;25.90;99.90;;;;;;5156885;27;19983;-72
2022/08/04 13:00:41;;;;;;;;;;;25.90;99.90;;;;;;5157490;27;19923;-72
2022/08/04 13:03:11;;;;;;;;;;;25.80;99.90;;;;;;5157670;27;20068;-71
2022/08/04 13:05:38;;;;;;;;;;;25.80;99.90;;;;;;5157442;27;19923;-72
2022/08/04 13:08:05;;;;;;;;;;;25.80;99.90;;;;;;5139463;27;20388;-72
2022/08/04 13:10:30;;;;;;;;;;;25.70;99.90;;;;;;5156124;27;19930;-71
2022/08/04 13:12:57;;;;;;;;;;;25.70;99.90;;;;;;5173822;27;19923;-72
2022/08/04 13:15:24;;;;;;;;;;;25.60;99.90;;;;;;5173170;27;19927;-72
2022/08/04 13:17:49;;;;;;;;;;;25.50;99.90;;;;;;5139120;27;19930;-71
2022/08/04 13:20:16;;;;;;;;;;;25.40;99.90;;;;;;5157143;27;19923;-71
2022/08/04 13:22:42;;;;;;;;;;;25.30;99.90;;;;;;5157662;27;19930;-71
2022/08/04 13:25:09;;;;;;;;;;;25.20;99.90;;;;;;5157332;27;19923;-71
2022/08/04 13:27:37;;;;;;;;;;;25.20;99.90;;;;;;5155803;27;20381;-71
2022/08/04 13:30:02;;;;;;;;;;;25.10;99.90;;;;;;5157172;27;19929;-72
2022/08/04 13:32:28;;;;;;;;;;;25.00;99.90;;;;;;5138508;27;20014;-71
2022/08/04 13:34:56;;;;;;;;;;;24.90;99.90;;;;;;5156792;27;19923;-71
2022/08/04 13:37:29;;;;;;;;;;;24.90;99.90;;;;;;5173342;27;19945;-71
2022/08/04 13:39:56;;;;;;;;;;;24.90;99.90;;;;;;5156960;27;19923;-71
2022/08/04 13:42:22;;;;;;;;;;;24.80;99.90;;;;;;5155878;27;19923;-73
2022/08/04 13:44:52;;;;;;;;;;;24.80;99.90;;;;;;5156856;27;19927;-72
2022/08/04 13:47:24;;;;;;;;;;;24.70;99.90;;;;;;5156725;27;19924;-72
2022/08/04 13:50:08;;;;;;;;;;;24.70;99.90;;;;;;5156596;27;20300;-71
2022/08/04 13:52:34;;;;;;;;;;;24.60;99.90;;;;;;5156750;27;19926;-71
2022/08/04 13:54:59;;;;;;;;;;;24.60;99.90;;;;;;5156689;27;19930;-71
2022/08/04 13:57:30;;;;;;;;;;;24.60;99.90;;;;;;5156551;27;20015;-72
2022/08/04 14:00:06;;;;;;;;;;;24.60;99.90;;;;;;5138093;27;19930;-71
2022/08/04 14:02:36;;;;;;;;;;;24.60;99.90;;;;;;5156711;27;20067;-71
2022/08/04 14:05:12;;;;;;;;;;;24.60;99.90;;;;;;5156471;27;20018;-72
2022/08/04 14:07:40;;;;;;;;;;;24.70;99.90;;;;;;5156459;27;19923;-71
2022/08/04 14:10:12;;;;;;;;;;;24.70;99.90;;;;;;5156259;27;19930;-71
2022/08/04 14:12:48;;;;;;;;;;;24.80;99.90;;;;;;5156246;27;20281;-72
2022/08/04 14:15:30;;;;;;;;;;;24.90;99.90;;;;;;5156318;27;19984;-72
2022/08/04 14:18:15;;;;;;;;;;;24.90;99.90;;;;;;5156147;27;20301;-71
2022/08/04 14:20:56;;;;;;;;;;;25.00;99.90;;;;;;5137807;27;19976;-72
2022/08/04 14:23:22;;;;;;;;;;;25.10;99.90;;;;;;5137881;27;20013;-71
2022/08/04 14:25:47;;;;;;;;;;;25.20;99.90;;;;;;5156076;27;20073;-72
2022/08/04 14:28:25;;;;;;;;;;;25.20;99.90;;;;;;5137928;27;19927;-72
2022/08/04 14:30:51;;;;;;;;;;;25.20;99.90;;;;;;5171401;27;20293;-71
2022/08/04 14:33:17;;;;;;;;;;;25.30;99.90;;;;;;5137587;27;19923;-72
2022/08/04 14:35:54;;;;;;;;;;;25.40;99.90;;;;;;5155593;27;19923;-72
2022/08/04 14:38:20;;;;;;;;;;;25.50;99.90;;;;;;5156036;27;20056;-72
2022/08/04 14:40:46;;;;;;;;;;;25.50;99.90;;;;;;5155653;27;20434;-72
2022/08/04 14:43:15;;;;;;;;;;;25.50;99.90;;;;;;5155704;27;20022;-71